createdAt,value
2023-04-10T00:03:02.271Z,102236.78
2023-04-10T00:06:07.694Z,102240.31
2023-04-10T00:09:12.927Z,102242.03
2023-04-10T00:12:17.208Z,102240.31
2023-04-10T00:15:21.587Z,102246.34
2023-04-10T00:18:25.893Z,102238.50
2023-04-10T00:21:31.349Z,102240.22
2023-04-10T00:24:35.746Z,102237.63
2023-04-10T00:27:40.348Z,102234.97
2023-04-10T00:30:44.613Z,102221.06
2023-04-10T00:33:48.835Z,102226.28
2023-04-10T00:36:53.446Z,102231.53
2023-04-10T00:39:57.727Z,102225.53
2023-04-10T00:43:02.128Z,102219.44
2023-04-10T00:46:07.250Z,102216.81
2023-04-10T00:49:11.920Z,102210.75
2023-04-10T00:52:16.553Z,102207.25
2023-04-10T00:55:21.189Z,102201.19
2023-04-10T00:58:26.883Z,102201.19
2023-04-10T01:01:31.518Z,102201.22
2023-04-10T01:04:36.364Z,102203.03
2023-04-10T01:08:05.163Z,102202.19
2023-04-10T01:11:32.739Z,102192.63
2023-04-10T01:15:12.913Z,102190.06
2023-04-10T01:18:27.027Z,102190.09
2023-04-10T01:21:36.169Z,102182.25
2023-04-10T01:25:05.005Z,102175.28
2023-04-10T01:28:47.099Z,102177.84
2023-04-10T01:32:01.792Z,102173.47
2023-04-10T01:35:08.889Z,102183.03
2023-04-10T01:38:18.136Z,102170.84
2023-04-10T01:41:24.047Z,102163.00
2023-04-10T01:44:32.121Z,102169.06
2023-04-10T01:47:36.952Z,102164.72
2023-04-10T01:50:41.898Z,102150.75
2023-04-10T01:53:47.265Z,102149.84
2023-04-10T01:56:51.894Z,102148.16
2023-04-10T01:59:56.699Z,102139.38
2023-04-10T02:03:01.198Z,102143.75
2023-04-10T02:06:50.507Z,102138.50
2023-04-10T02:10:19.538Z,102132.38
2023-04-10T02:13:27.775Z,102122.78
2023-04-10T02:16:34.156Z,102120.06
2023-04-10T02:19:40.292Z,102113.06
2023-04-10T02:22:44.964Z,102120.94
2023-04-10T02:25:49.503Z,102121.75
2023-04-10T02:28:53.860Z,102106.91
2023-04-10T02:31:57.949Z,102108.69
2023-04-10T02:35:03.171Z,102097.41
2023-04-10T02:38:08.058Z,102091.31
2023-04-10T02:41:12.174Z,102087.75
2023-04-10T02:44:16.432Z,102080.81
2023-04-10T02:47:20.832Z,102074.72
2023-04-10T02:50:25.593Z,102066.94
2023-04-10T02:53:30.163Z,102059.91
2023-04-10T02:56:35.140Z,102064.28
2023-04-10T02:59:39.447Z,102059.84
2023-04-10T03:02:44.030Z,102053.78
2023-04-10T03:05:49.567Z,102052.88
2023-04-10T03:08:54.469Z,102049.41
2023-04-10T03:11:58.997Z,102053.84
2023-04-10T03:15:03.488Z,102039.94
2023-04-10T03:18:09.200Z,102033.84
2023-04-10T03:21:13.939Z,102033.84
2023-04-10T03:24:18.121Z,102034.66
2023-04-10T03:27:22.697Z,102022.50
2023-04-10T03:30:27.110Z,102019.91
2023-04-10T03:33:31.233Z,102016.44
2023-04-10T03:36:35.968Z,102026.03
2023-04-10T03:39:40.672Z,102016.44
2023-04-10T03:42:44.865Z,102020.84
2023-04-10T03:45:49.193Z,102012.16
2023-04-10T03:48:54.180Z,102008.72
2023-04-10T03:51:58.584Z,102015.72
2023-04-10T03:55:02.907Z,102007.94
2023-04-10T03:58:07.514Z,102001.00
2023-04-10T04:01:11.801Z,102006.22
2023-04-10T04:04:16.032Z,102006.19
2023-04-10T04:07:20.614Z,102005.28
2023-04-10T04:10:25.135Z,102006.16
2023-04-10T04:13:29.427Z,102007.00
2023-04-10T04:16:33.839Z,102007.00
2023-04-10T04:19:38.387Z,102000.00
2023-04-10T04:22:42.918Z,102003.50
2023-04-10T04:25:47.176Z,102000.00
2023-04-10T04:28:51.604Z,101999.09
2023-04-10T04:31:55.931Z,101996.47
2023-04-10T04:35:00.403Z,101995.63
2023-04-10T04:38:04.845Z,101992.16
2023-04-10T04:41:09.461Z,101996.56
2023-04-10T04:44:14.079Z,101995.63
2023-04-10T04:47:18.459Z,101990.34
2023-04-10T04:50:22.480Z,101990.31
2023-04-10T04:53:26.916Z,101991.06
2023-04-10T04:56:30.867Z,101990.22
2023-04-10T04:59:35.453Z,101994.47
2023-04-10T05:02:39.834Z,101991.00
2023-04-10T05:05:44.350Z,101982.13
2023-04-10T05:08:48.821Z,101971.63
2023-04-10T05:11:54.443Z,101962.97
2023-04-10T05:14:59.230Z,101970.72
2023-04-10T05:18:03.834Z,101973.28
2023-04-10T05:21:08.208Z,101976.66
2023-04-10T05:24:12.143Z,101964.38
2023-04-10T05:27:18.328Z,101960.72
2023-04-10T05:30:22.667Z,101958.06
2023-04-10T05:33:26.875Z,101951.06
2023-04-10T05:36:32.185Z,101953.59
2023-04-10T05:39:36.369Z,101955.28
2023-04-10T05:42:40.707Z,101954.41
2023-04-10T05:45:45.389Z,101945.56
2023-04-10T05:48:49.775Z,101945.53
2023-04-10T05:51:54.155Z,101939.47
2023-04-10T05:54:58.265Z,101936.78
2023-04-10T05:58:02.664Z,101920.16
2023-04-10T06:01:07.705Z,101915.66
2023-04-10T06:04:12.056Z,101907.72
2023-04-10T06:07:16.939Z,101912.03
2023-04-10T06:10:21.412Z,101907.59
2023-04-10T06:13:27.365Z,101905.66
2023-04-10T06:16:31.600Z,101889.03
2023-04-10T06:19:36.561Z,101879.25
2023-04-10T06:22:41.068Z,101874.63
2023-04-10T06:25:45.516Z,101875.38
2023-04-10T06:28:49.897Z,101878.81
2023-04-10T06:31:54.564Z,101873.50
2023-04-10T06:34:58.887Z,101867.28
2023-04-10T06:38:03.623Z,101881.19
2023-04-10T06:41:08.153Z,101867.16
2023-04-10T06:44:12.391Z,101860.88
2023-04-10T06:47:18.305Z,101859.94
2023-04-10T06:50:22.710Z,101861.59
2023-04-10T06:53:27.288Z,101870.25
2023-04-10T06:56:32.135Z,101862.31
2023-04-10T06:59:36.822Z,101862.97
2023-04-10T07:02:41.036Z,101869.69
2023-04-10T07:05:45.467Z,101858.16
2023-04-10T07:08:49.885Z,101862.41
2023-04-10T07:11:54.295Z,101861.38
2023-04-10T07:14:58.900Z,101856.63
2023-04-10T07:18:03.557Z,101862.59
2023-04-10T07:21:14.696Z,101857.19
2023-04-10T07:24:19.267Z,101847.03
2023-04-10T07:27:24.831Z,101840.66
2023-04-10T07:30:29.077Z,101851.88
2023-04-10T07:33:33.688Z,101841.13
2023-04-10T07:36:38.940Z,101833.75
2023-04-10T07:39:43.352Z,101824.72
2023-04-10T07:42:48.108Z,101827.84
2023-04-10T07:45:52.895Z,101824.16
2023-04-10T07:48:57.499Z,101820.13
2023-04-10T07:52:01.783Z,101811.41
2023-04-10T07:55:06.794Z,101807.75
2023-04-10T07:58:11.372Z,101804.25
2023-04-10T08:01:15.873Z,101800.31
2023-04-10T08:04:20.099Z,101800.00
2023-04-10T08:07:24.645Z,101800.69
2023-04-10T08:10:29.128Z,101786.19
2023-04-10T08:13:33.419Z,101785.66
2023-04-10T08:16:38.531Z,101784.69
2023-04-10T08:19:43.567Z,101780.06
2023-04-10T08:22:48.222Z,101784.38
2023-04-10T08:25:52.354Z,101779.72
2023-04-10T08:28:58.747Z,101767.22
2023-04-10T08:32:02.879Z,101767.88
2023-04-10T08:35:07.789Z,101760.66
2023-04-10T08:38:14.421Z,101745.03
2023-04-10T08:41:20.035Z,101751.44
2023-04-10T08:44:24.372Z,101754.09
2023-04-10T08:47:31.176Z,101740.16
2023-04-10T08:50:43.180Z,101741.50
2023-04-10T08:53:51.476Z,101736.41
2023-04-10T08:56:56.805Z,101725.09
2023-04-10T09:00:09.665Z,101722.31
2023-04-10T09:03:25.587Z,101713.78
2023-04-10T09:06:31.485Z,101703.88
2023-04-10T09:09:36.313Z,101703.19
2023-04-10T09:12:48.677Z,101685.44
2023-04-10T09:16:00.331Z,101683.00
2023-04-10T09:19:07.263Z,101666.47
2023-04-10T09:22:12.973Z,101662.06
2023-04-10T09:25:41.667Z,101645.81
2023-04-10T09:29:06.221Z,101655.66
2023-04-10T09:32:12.309Z,101642.66
2023-04-10T09:35:16.684Z,101631.50
2023-04-10T09:38:21.984Z,101624.38
2023-04-10T09:41:26.097Z,101639.59
2023-04-10T09:44:32.858Z,101619.88
2023-04-10T09:47:37.890Z,101614.53
2023-04-10T09:50:42.698Z,101607.91
2023-04-10T09:53:50.887Z,101608.28
2023-04-10T09:56:56.574Z,101597.38
2023-04-10T10:00:05.166Z,101586.88
2023-04-10T10:03:15.935Z,101581.19
2023-04-10T10:06:21.732Z,101578.19
2023-04-10T10:09:29.315Z,101565.25
2023-04-10T10:12:50.482Z,101562.88
2023-04-10T10:16:13.606Z,101550.00
2023-04-10T10:19:36.461Z,101534.06
2023-04-10T10:22:41.368Z,101534.38
2023-04-10T10:25:46.754Z,101524.03
2023-04-10T10:28:56.177Z,101530.69
2023-04-10T10:32:02.926Z,101496.69
2023-04-10T10:35:08.497Z,101503.50
2023-04-10T10:38:13.687Z,101488.59
2023-04-10T10:41:56.994Z,101481.81
2023-04-10T10:45:16.956Z,101484.47
2023-04-10T10:48:21.608Z,101459.38
2023-04-10T10:51:51.812Z,101454.22
2023-04-10T10:54:59.452Z,101454.28
2023-04-10T10:58:09.752Z,101444.34
2023-04-10T11:01:15.575Z,101443.38
2023-04-10T11:04:48.684Z,101435.84
2023-04-10T11:08:10.786Z,101420.13
2023-04-10T11:11:23.539Z,101424.72
2023-04-10T11:14:31.059Z,101413.31
2023-04-10T11:17:49.708Z,101404.94
2023-04-10T11:21:28.576Z,101408.78
2023-04-10T11:24:57.842Z,101391.13
2023-04-10T11:28:02.846Z,101401.00
2023-04-10T11:31:22.800Z,101384.69
2023-04-10T11:34:27.788Z,101379.69
2023-04-10T11:37:32.146Z,101375.31
2023-04-10T11:40:36.625Z,101367.88
2023-04-10T11:43:41.241Z,101360.38
2023-04-10T11:46:47.413Z,101365.69
2023-04-10T11:49:55.839Z,101351.84
2023-04-10T11:53:00.666Z,101361.00
2023-04-10T11:56:07.575Z,101344.00
2023-04-10T11:59:14.445Z,101344.53
2023-04-10T12:02:19.022Z,101332.53
2023-04-10T12:05:23.678Z,101319.69
2023-04-10T12:08:37.763Z,101318.53
2023-04-10T12:11:49.787Z,101332.75
2023-04-10T12:14:54.535Z,101320.41
2023-04-10T12:17:58.972Z,101314.25
2023-04-10T12:21:05.508Z,101301.78
2023-04-10T12:24:12.284Z,101310.25
2023-04-10T12:27:25.591Z,101309.59
2023-04-10T12:30:29.904Z,101296.91
2023-04-10T12:33:34.377Z,101287.09
2023-04-10T12:36:39.188Z,101278.63
2023-04-10T12:39:43.980Z,101282.66
2023-04-10T12:42:48.479Z,101289.91
2023-04-10T12:45:52.672Z,101276.47
2023-04-10T12:48:57.123Z,101276.25
2023-04-10T12:52:01.907Z,101261.41
2023-04-10T12:55:18.862Z,101259.19
2023-04-10T12:58:27.971Z,101242.31
2023-04-10T13:01:32.553Z,101247.84
2023-04-10T13:04:37.059Z,101226.81
2023-04-10T13:07:42.300Z,101221.72
2023-04-10T13:10:47.152Z,101221.09
2023-04-10T13:13:52.619Z,101213.91
2023-04-10T13:16:56.820Z,101209.50
2023-04-10T13:20:01.199Z,101193.34
2023-04-10T13:23:07.950Z,101178.50
2023-04-10T13:26:14.101Z,101165.22
2023-04-10T13:29:18.521Z,101147.75
2023-04-10T13:32:22.961Z,101148.25
2023-04-10T13:35:27.359Z,101146.88
2023-04-10T13:38:31.916Z,101127.63
2023-04-10T13:41:36.133Z,101120.44
2023-04-10T13:44:40.538Z,101121.91
2023-04-10T13:47:44.534Z,101111.63
2023-04-10T13:50:49.426Z,101107.41
2023-04-10T13:53:53.611Z,101093.69
2023-04-10T13:56:59.269Z,101092.63
2023-04-10T14:00:04.788Z,101078.09
2023-04-10T14:03:12.178Z,101076.56
2023-04-10T14:06:17.637Z,101074.75
2023-04-10T14:09:22.254Z,101057.84
2023-04-10T14:12:27.332Z,101033.44
2023-04-10T14:15:31.649Z,101038.75
2023-04-10T14:18:37.361Z,101008.16
2023-04-10T14:21:43.862Z,101029.69
2023-04-10T14:25:11.808Z,101010.44
2023-04-10T14:28:17.666Z,101005.13
2023-04-10T14:31:22.401Z,100998.84
2023-04-10T14:34:27.180Z,100990.63
2023-04-10T14:37:32.268Z,100991.00
2023-04-10T14:40:37.283Z,100991.84
2023-04-10T14:43:43.580Z,100977.16
2023-04-10T14:46:48.811Z,100983.91
2023-04-10T14:49:53.318Z,100973.25
2023-04-10T14:53:00.176Z,100969.88
2023-04-10T14:56:15.733Z,100956.47
2023-04-10T14:59:20.400Z,100963.84
2023-04-10T15:02:24.834Z,100951.53
2023-04-10T15:05:29.873Z,100950.09
2023-04-10T15:08:34.264Z,100939.06
2023-04-10T15:11:38.431Z,100926.09
2023-04-10T15:14:43.042Z,100919.44
2023-04-10T15:17:47.442Z,100904.56
2023-04-10T15:20:55.978Z,100904.56
2023-04-10T15:24:01.110Z,100880.59
2023-04-10T15:27:10.028Z,100866.41
2023-04-10T15:30:14.546Z,100873.97
2023-04-10T15:33:19.506Z,100853.44
2023-04-10T15:36:23.984Z,100851.03
2023-04-10T15:39:30.844Z,100847.66
2023-04-10T15:42:36.195Z,100850.53
2023-04-10T15:45:40.448Z,100843.28
2023-04-10T15:48:46.053Z,100839.72
2023-04-10T15:51:50.500Z,100816.69
2023-04-10T15:54:54.790Z,100808.25
2023-04-10T15:58:00.975Z,100818.59
2023-04-10T16:01:07.041Z,100808.59
2023-04-10T16:04:11.317Z,100792.56
2023-04-10T16:07:16.528Z,100796.16
2023-04-10T16:10:21.380Z,100794.31
2023-04-10T16:13:26.026Z,100794.19
2023-04-10T16:16:30.956Z,100787.78
2023-04-10T16:19:35.321Z,100788.47
2023-04-10T16:22:39.317Z,100777.03
2023-04-10T16:25:43.617Z,100754.63
2023-04-10T16:28:47.973Z,100763.03
2023-04-10T16:31:52.212Z,100752.19
2023-04-10T16:34:57.021Z,100761.31
2023-04-10T16:38:01.316Z,100749.06
2023-04-10T16:41:06.341Z,100734.56
2023-04-10T16:44:10.762Z,100724.41
2023-04-10T16:47:14.629Z,100719.97
2023-04-10T16:50:19.058Z,100726.56
2023-04-10T16:53:23.512Z,100716.94
2023-04-10T16:56:27.886Z,100704.66
2023-04-10T16:59:32.920Z,100699.09
2023-04-10T17:02:37.073Z,100687.66
2023-04-10T17:05:41.485Z,100682.91
2023-04-10T17:08:49.715Z,100677.84
2023-04-10T17:11:54.097Z,100681.53
2023-04-10T17:14:59.061Z,100671.16
2023-04-10T17:18:03.620Z,100657.19
2023-04-10T17:21:12.772Z,100668.13
2023-04-10T17:24:17.453Z,100658.50
2023-04-10T17:27:21.852Z,100654.94
2023-04-10T17:30:26.478Z,100650.13
2023-04-10T17:33:30.714Z,100649.75
2023-04-10T17:36:34.868Z,100644.72
2023-04-10T17:39:39.416Z,100632.53
2023-04-10T17:42:43.830Z,100637.22
2023-04-10T17:45:47.714Z,100632.38
2023-04-10T17:48:52.148Z,100627.09
2023-04-10T17:51:56.722Z,100622.00
2023-04-10T17:55:02.283Z,100632.81
2023-04-10T17:58:07.122Z,100630.50
2023-04-10T18:01:11.592Z,100629.91
2023-04-10T18:04:16.434Z,100627.34
2023-04-10T18:07:20.980Z,100629.91
2023-04-10T18:10:25.603Z,100617.84
2023-04-10T18:13:30.262Z,100624.75
2023-04-10T18:16:34.227Z,100630.78
2023-04-10T18:19:39.234Z,100622.31
2023-04-10T18:22:43.584Z,100620.66
2023-04-10T18:25:55.556Z,100613.44
2023-04-10T18:29:02.456Z,100611.53
2023-04-10T18:32:07.706Z,100602.75
2023-04-10T18:35:12.205Z,100588.91
2023-04-10T18:38:16.863Z,100588.06
2023-04-10T18:41:21.122Z,100591.78
2023-04-10T18:44:25.291Z,100586.72
2023-04-10T18:47:29.979Z,100588.41
2023-04-10T18:50:37.922Z,100590.91
2023-04-10T18:53:42.204Z,100596.34
2023-04-10T18:56:46.767Z,100601.84
2023-04-10T18:59:51.371Z,100599.44
2023-04-10T19:02:55.709Z,100608.19
2023-04-10T19:06:00.596Z,100620.06
2023-04-10T19:09:05.264Z,100633.22
2023-04-10T19:12:10.449Z,100644.09
2023-04-10T19:15:15.867Z,100644.59
2023-04-10T19:18:20.160Z,100641.22
2023-04-10T19:21:24.106Z,100654.91
2023-04-10T19:24:29.092Z,100651.31
2023-04-10T19:27:33.545Z,100619.59
2023-04-10T19:30:37.834Z,100587.56
2023-04-10T19:33:42.102Z,100558.72
2023-04-10T19:36:46.713Z,100541.31
2023-04-10T19:39:50.905Z,100532.84
2023-04-10T19:42:56.374Z,100521.47
2023-04-10T19:46:03.757Z,100505.44
2023-04-10T19:49:08.411Z,100491.22
2023-04-10T19:52:12.848Z,100472.66
2023-04-10T19:55:18.986Z,100485.13
2023-04-10T19:58:35.992Z,100459.09
2023-04-10T20:01:44.744Z,100465.97
2023-04-10T20:04:49.488Z,100447.28
2023-04-10T20:07:53.997Z,100429.88
2023-04-10T20:10:58.470Z,100434.03
2023-04-10T20:14:03.089Z,100429.16
2023-04-10T20:17:07.657Z,100416.47
2023-04-10T20:20:13.123Z,100412.06
2023-04-10T20:23:17.222Z,100397.28
2023-04-10T20:26:21.915Z,100380.50
2023-04-10T20:29:26.642Z,100367.06
2023-04-10T20:32:31.106Z,100362.44
2023-04-10T20:35:35.791Z,100359.97
2023-04-10T20:38:40.556Z,100351.84
2023-04-10T20:41:44.892Z,100349.19
2023-04-10T20:44:49.805Z,100349.72
2023-04-10T20:47:54.411Z,100342.72
2023-04-10T20:50:58.590Z,100349.28
2023-04-10T20:54:04.421Z,100354.56
2023-04-10T20:57:08.870Z,100347.34
2023-04-10T21:00:13.286Z,100340.69
2023-04-10T21:03:17.732Z,100340.81
2023-04-10T21:06:24.656Z,100337.44
2023-04-10T21:09:28.806Z,100330.25
2023-04-10T21:12:32.793Z,100336.00
2023-04-10T21:15:37.437Z,100323.84
2023-04-10T21:18:41.713Z,100332.53
2023-04-10T21:21:46.424Z,100342.19
2023-04-10T21:24:50.951Z,100330.28
2023-04-10T21:27:54.958Z,100331.84
2023-04-10T21:30:59.371Z,100339.44
2023-04-10T21:34:03.842Z,100344.06
2023-04-10T21:37:08.208Z,100340.47
2023-04-10T21:40:12.294Z,100356.06
2023-04-10T21:43:16.634Z,100361.94
2023-04-10T21:46:21.289Z,100379.06
2023-04-10T21:49:25.777Z,100384.34
2023-04-10T21:52:30.132Z,100408.34
2023-04-10T21:55:34.283Z,100424.53
2023-04-10T21:58:38.718Z,100435.69
2023-04-10T22:01:43.784Z,100439.25
2023-04-10T22:04:54.453Z,100425.44
2023-04-10T22:07:59.322Z,100445.38
2023-04-10T22:11:05.862Z,100448.66
2023-04-10T22:14:17.075Z,100464.94
2023-04-10T22:17:23.633Z,100457.66
2023-04-10T22:20:28.296Z,100447.50
2023-04-10T22:23:32.877Z,100437.88
2023-04-10T22:26:36.911Z,100430.25
2023-04-10T22:29:45.413Z,100428.06
2023-04-10T22:32:58.691Z,100433.06
2023-04-10T22:36:03.847Z,100442.13
2023-04-10T22:39:08.528Z,100429.22
2023-04-10T22:42:12.768Z,100427.53
2023-04-10T22:45:17.064Z,100423.78
2023-04-10T22:48:21.144Z,100430.91
2023-04-10T22:51:26.761Z,100420.41
2023-04-10T22:54:31.397Z,100429.03
2023-04-10T22:57:35.819Z,100426.38
2023-04-10T23:00:40.175Z,100420.28
2023-04-10T23:03:45.060Z,100418.53
2023-04-10T23:06:49.488Z,100412.41
2023-04-10T23:09:53.982Z,100403.81
2023-04-10T23:12:58.314Z,100400.34
2023-04-10T23:16:02.795Z,100397.03
2023-04-10T23:19:06.739Z,100399.50
2023-04-10T23:22:11.448Z,100383.66
2023-04-10T23:25:16.063Z,100385.53
2023-04-10T23:28:21.443Z,100387.22
2023-04-10T23:31:25.692Z,100375.03
2023-04-10T23:34:29.823Z,100370.53
2023-04-10T23:37:35.269Z,100357.59
2023-04-10T23:40:39.668Z,100349.88
2023-04-10T23:43:44.938Z,100352.50
2023-04-10T23:46:50.817Z,100343.88
2023-04-10T23:49:55.782Z,100340.22
2023-04-10T23:53:00.638Z,100347.25
2023-04-10T23:56:05.255Z,100343.72
2023-04-10T23:59:09.777Z,100330.75
